sensor_id;sensor_type;location;lat;lon;timestamp;P1;durP1;ratioP1;P2;durP2;ratioP2
26820;SDS011;37186;51.394;5.454;2023-04-06T00:01:55;2.87;;;2.77;;
26820;SDS011;37186;51.394;5.454;2023-04-06T00:04:55;2.60;;;2.60;;
26820;SDS011;37186;51.394;5.454;2023-04-06T00:07:59;2.63;;;2.63;;
26820;SDS011;37186;51.394;5.454;2023-04-06T00:11:00;2.90;;;2.80;;
26820;SDS011;37186;51.394;5.454;2023-04-06T00:14:00;2.60;;;2.60;;
26820;SDS011;37186;51.394;5.454;2023-04-06T00:17:01;2.57;;;2.57;;
26820;SDS011;37186;51.394;5.454;2023-04-06T00:20:02;2.60;;;2.60;;
26820;SDS011;37186;51.394;5.454;2023-04-06T00:23:02;2.57;;;2.57;;
26820;SDS011;37186;51.394;5.454;2023-04-06T00:26:03;2.60;;;2.60;;
26820;SDS011;37186;51.394;5.454;2023-04-06T00:29:04;2.63;;;2.63;;
26820;SDS011;37186;51.394;5.454;2023-04-06T00:32:04;2.60;;;2.60;;
26820;SDS011;37186;51.394;5.454;2023-04-06T00:35:05;2.73;;;2.67;;
26820;SDS011;37186;51.394;5.454;2023-04-06T00:38:06;2.57;;;2.57;;
26820;SDS011;37186;51.394;5.454;2023-04-06T00:41:07;2.83;;;2.73;;
26820;SDS011;37186;51.394;5.454;2023-04-06T00:44:07;2.60;;;2.60;;
26820;SDS011;37186;51.394;5.454;2023-04-06T00:47:08;2.43;;;2.43;;
26820;SDS011;37186;51.394;5.454;2023-04-06T00:50:09;2.40;;;2.40;;
26820;SDS011;37186;51.394;5.454;2023-04-06T00:53:10;2.50;;;2.50;;
26820;SDS011;37186;51.394;5.454;2023-04-06T00:56:10;2.57;;;2.57;;
26820;SDS011;37186;51.394;5.454;2023-04-06T00:59:11;2.40;;;2.40;;
26820;SDS011;37186;51.394;5.454;2023-04-06T01:02:12;2.40;;;2.40;;
26820;SDS011;37186;51.394;5.454;2023-04-06T01:05:13;2.50;;;2.50;;
26820;SDS011;37186;51.394;5.454;2023-04-06T01:08:13;2.50;;;2.50;;
26820;SDS011;37186;51.394;5.454;2023-04-06T01:11:14;2.50;;;2.50;;
26820;SDS011;37186;51.394;5.454;2023-04-06T01:14:15;2.77;;;2.67;;
26820;SDS011;37186;51.394;5.454;2023-04-06T01:17:15;2.60;;;2.60;;
26820;SDS011;37186;51.394;5.454;2023-04-06T01:20:16;2.90;;;2.80;;
26820;SDS011;37186;51.394;5.454;2023-04-06T01:23:16;2.60;;;2.60;;
26820;SDS011;37186;51.394;5.454;2023-04-06T01:26:17;2.40;;;2.40;;
26820;SDS011;37186;51.394;5.454;2023-04-06T01:29:18;2.60;;;2.60;;
26820;SDS011;37186;51.394;5.454;2023-04-06T01:32:18;2.70;;;2.70;;
26820;SDS011;37186;51.394;5.454;2023-04-06T01:35:19;2.60;;;2.60;;
26820;SDS011;37186;51.394;5.454;2023-04-06T01:38:20;2.60;;;2.60;;
26820;SDS011;37186;51.394;5.454;2023-04-06T01:41:21;2.77;;;2.70;;
26820;SDS011;37186;51.394;5.454;2023-04-06T01:44:21;2.70;;;2.70;;
26820;SDS011;37186;51.394;5.454;2023-04-06T01:47:22;2.60;;;2.60;;
26820;SDS011;37186;51.394;5.454;2023-04-06T01:50:22;2.80;;;2.73;;
26820;SDS011;37186;51.394;5.454;2023-04-06T01:53:23;2.73;;;2.67;;
26820;SDS011;37186;51.394;5.454;2023-04-06T01:56:23;2.50;;;2.50;;
26820;SDS011;37186;51.394;5.454;2023-04-06T01:59:24;2.83;;;2.77;;
26820;SDS011;37186;51.394;5.454;2023-04-06T02:02:25;2.60;;;2.60;;
26820;SDS011;37186;51.394;5.454;2023-04-06T02:05:25;2.60;;;2.60;;
26820;SDS011;37186;51.394;5.454;2023-04-06T02:08:26;2.97;;;2.87;;
26820;SDS011;37186;51.394;5.454;2023-04-06T02:11:27;2.60;;;2.60;;
26820;SDS011;37186;51.394;5.454;2023-04-06T02:14:27;2.73;;;2.67;;
26820;SDS011;37186;51.394;5.454;2023-04-06T02:17:28;2.60;;;2.60;;
26820;SDS011;37186;51.394;5.454;2023-04-06T02:20:28;2.67;;;2.67;;
26820;SDS011;37186;51.394;5.454;2023-04-06T02:23:29;2.80;;;2.70;;
26820;SDS011;37186;51.394;5.454;2023-04-06T02:26:30;2.60;;;2.60;;
26820;SDS011;37186;51.394;5.454;2023-04-06T02:29:30;2.60;;;2.60;;
26820;SDS011;37186;51.394;5.454;2023-04-06T02:32:31;2.60;;;2.60;;
26820;SDS011;37186;51.394;5.454;2023-04-06T02:35:31;2.50;;;2.50;;
26820;SDS011;37186;51.394;5.454;2023-04-06T02:38:32;2.70;;;2.70;;
26820;SDS011;37186;51.394;5.454;2023-04-06T02:41:32;2.80;;;2.70;;
26820;SDS011;37186;51.394;5.454;2023-04-06T02:44:33;2.60;;;2.60;;
26820;SDS011;37186;51.394;5.454;2023-04-06T02:47:33;2.70;;;2.60;;
26820;SDS011;37186;51.394;5.454;2023-04-06T02:50:34;2.60;;;2.60;;
26820;SDS011;37186;51.394;5.454;2023-04-06T02:53:34;2.60;;;2.60;;
26820;SDS011;37186;51.394;5.454;2023-04-06T02:56:35;2.50;;;2.50;;
26820;SDS011;37186;51.394;5.454;2023-04-06T02:59:35;2.57;;;2.57;;
26820;SDS011;37186;51.394;5.454;2023-04-06T03:02:36;2.50;;;2.50;;
26820;SDS011;37186;51.394;5.454;2023-04-06T03:05:36;2.70;;;2.60;;
26820;SDS011;37186;51.394;5.454;2023-04-06T03:08:37;2.77;;;2.70;;
26820;SDS011;37186;51.394;5.454;2023-04-06T03:11:37;2.60;;;2.60;;
26820;SDS011;37186;51.394;5.454;2023-04-06T03:14:38;2.73;;;2.70;;
26820;SDS011;37186;51.394;5.454;2023-04-06T03:17:38;2.67;;;2.67;;
26820;SDS011;37186;51.394;5.454;2023-04-06T03:20:39;2.80;;;2.70;;
26820;SDS011;37186;51.394;5.454;2023-04-06T03:23:40;2.60;;;2.60;;
26820;SDS011;37186;51.394;5.454;2023-04-06T03:26:41;2.60;;;2.60;;
26820;SDS011;37186;51.394;5.454;2023-04-06T03:29:42;2.60;;;2.60;;
26820;SDS011;37186;51.394;5.454;2023-04-06T03:32:45;2.60;;;2.60;;
26820;SDS011;37186;51.394;5.454;2023-04-06T03:35:45;2.60;;;2.60;;
26820;SDS011;37186;51.394;5.454;2023-04-06T03:38:46;2.90;;;2.80;;
26820;SDS011;37186;51.394;5.454;2023-04-06T03:41:47;2.70;;;2.70;;
26820;SDS011;37186;51.394;5.454;2023-04-06T03:44:47;2.90;;;2.80;;
26820;SDS011;37186;51.394;5.454;2023-04-06T03:47:48;2.90;;;2.80;;
26820;SDS011;37186;51.394;5.454;2023-04-06T03:50:48;2.60;;;2.60;;
26820;SDS011;37186;51.394;5.454;2023-04-06T03:53:49;2.90;;;2.80;;
26820;SDS011;37186;51.394;5.454;2023-04-06T03:56:49;2.87;;;2.77;;
26820;SDS011;37186;51.394;5.454;2023-04-06T03:59:50;2.60;;;2.60;;
26820;SDS011;37186;51.394;5.454;2023-04-06T04:02:50;2.70;;;2.70;;
26820;SDS011;37186;51.394;5.454;2023-04-06T04:05:51;2.90;;;2.80;;
26820;SDS011;37186;51.394;5.454;2023-04-06T04:08:51;3.00;;;2.90;;
26820;SDS011;37186;51.394;5.454;2023-04-06T04:11:52;2.60;;;2.60;;
26820;SDS011;37186;51.394;5.454;2023-04-06T04:14:52;2.60;;;2.60;;
26820;SDS011;37186;51.394;5.454;2023-04-06T04:17:53;2.80;;;2.70;;
26820;SDS011;37186;51.394;5.454;2023-04-06T04:20:53;2.67;;;2.67;;
26820;SDS011;37186;51.394;5.454;2023-04-06T04:23:54;2.90;;;2.80;;
26820;SDS011;37186;51.394;5.454;2023-04-06T04:26:55;2.90;;;2.80;;
26820;SDS011;37186;51.394;5.454;2023-04-06T04:29:56;3.10;;;3.00;;
26820;SDS011;37186;51.394;5.454;2023-04-06T04:32:57;2.90;;;2.80;;
26820;SDS011;37186;51.394;5.454;2023-04-06T04:35:57;2.97;;;2.87;;
26820;SDS011;37186;51.394;5.454;2023-04-06T04:38:58;3.00;;;2.90;;
26820;SDS011;37186;51.394;5.454;2023-04-06T04:42:01;2.90;;;2.80;;
26820;SDS011;37186;51.394;5.454;2023-04-06T04:45:01;2.73;;;2.70;;
26820;SDS011;37186;51.394;5.454;2023-04-06T04:48:02;2.40;;;2.40;;
26820;SDS011;37186;51.394;5.454;2023-04-06T04:51:04;3.00;;;2.90;;
26820;SDS011;37186;51.394;5.454;2023-04-06T04:54:05;2.63;;;2.63;;
26820;SDS011;37186;51.394;5.454;2023-04-06T04:57:06;2.80;;;2.70;;
26820;SDS011;37186;51.394;5.454;2023-04-06T05:00:06;2.90;;;2.80;;
26820;SDS011;37186;51.394;5.454;2023-04-06T05:03:07;2.80;;;2.70;;
26820;SDS011;37186;51.394;5.454;2023-04-06T05:06:09;3.00;;;2.90;;
26820;SDS011;37186;51.394;5.454;2023-04-06T05:09:09;2.60;;;2.60;;
26820;SDS011;37186;51.394;5.454;2023-04-06T05:12:10;2.90;;;2.80;;
26820;SDS011;37186;51.394;5.454;2023-04-06T05:15:11;2.70;;;2.70;;
26820;SDS011;37186;51.394;5.454;2023-04-06T05:18:11;2.80;;;2.70;;
26820;SDS011;37186;51.394;5.454;2023-04-06T05:21:12;2.90;;;2.80;;
26820;SDS011;37186;51.394;5.454;2023-04-06T05:24:13;2.70;;;2.70;;
26820;SDS011;37186;51.394;5.454;2023-04-06T05:27:13;2.90;;;2.80;;
26820;SDS011;37186;51.394;5.454;2023-04-06T05:30:14;2.93;;;2.83;;
26820;SDS011;37186;51.394;5.454;2023-04-06T05:33:15;2.90;;;2.80;;
26820;SDS011;37186;51.394;5.454;2023-04-06T05:36:16;2.90;;;2.80;;
26820;SDS011;37186;51.394;5.454;2023-04-06T05:39:16;3.00;;;2.90;;
26820;SDS011;37186;51.394;5.454;2023-04-06T05:42:17;2.80;;;2.70;;
26820;SDS011;37186;51.394;5.454;2023-04-06T05:45:17;2.80;;;2.70;;
26820;SDS011;37186;51.394;5.454;2023-04-06T05:48:18;2.90;;;2.80;;
26820;SDS011;37186;51.394;5.454;2023-04-06T05:51:19;2.90;;;2.80;;
26820;SDS011;37186;51.394;5.454;2023-04-06T05:54:19;2.80;;;2.70;;
26820;SDS011;37186;51.394;5.454;2023-04-06T05:57:20;2.80;;;2.70;;
26820;SDS011;37186;51.394;5.454;2023-04-06T06:00:20;2.57;;;2.57;;
26820;SDS011;37186;51.394;5.454;2023-04-06T06:03:21;2.90;;;2.80;;
26820;SDS011;37186;51.394;5.454;2023-04-06T06:06:22;2.80;;;2.70;;
26820;SDS011;37186;51.394;5.454;2023-04-06T06:09:23;2.90;;;2.80;;
26820;SDS011;37186;51.394;5.454;2023-04-06T06:12:23;2.80;;;2.73;;
26820;SDS011;37186;51.394;5.454;2023-04-06T06:15:24;3.00;;;2.90;;
26820;SDS011;37186;51.394;5.454;2023-04-06T06:18:25;2.97;;;2.87;;
26820;SDS011;37186;51.394;5.454;2023-04-06T06:21:25;2.90;;;2.80;;
26820;SDS011;37186;51.394;5.454;2023-04-06T06:24:26;2.80;;;2.70;;
26820;SDS011;37186;51.394;5.454;2023-04-06T06:27:27;2.90;;;2.80;;
26820;SDS011;37186;51.394;5.454;2023-04-06T06:30:28;2.83;;;2.73;;
26820;SDS011;37186;51.394;5.454;2023-04-06T06:33:28;2.87;;;2.77;;
26820;SDS011;37186;51.394;5.454;2023-04-06T06:36:29;2.90;;;2.80;;
26820;SDS011;37186;51.394;5.454;2023-04-06T06:39:31;3.07;;;2.97;;
26820;SDS011;37186;51.394;5.454;2023-04-06T06:42:32;2.83;;;2.73;;
26820;SDS011;37186;51.394;5.454;2023-04-06T06:45:32;3.00;;;2.90;;
26820;SDS011;37186;51.394;5.454;2023-04-06T06:48:33;3.10;;;3.00;;
26820;SDS011;37186;51.394;5.454;2023-04-06T06:51:33;3.10;;;3.00;;
26820;SDS011;37186;51.394;5.454;2023-04-06T06:54:34;3.23;;;3.13;;
26820;SDS011;37186;51.394;5.454;2023-04-06T06:57:34;2.83;;;2.73;;
26820;SDS011;37186;51.394;5.454;2023-04-06T07:00:35;3.17;;;3.07;;
26820;SDS011;37186;51.394;5.454;2023-04-06T07:03:36;3.00;;;2.90;;
26820;SDS011;37186;51.394;5.454;2023-04-06T07:06:36;3.17;;;3.07;;
26820;SDS011;37186;51.394;5.454;2023-04-06T07:09:37;3.10;;;3.00;;
26820;SDS011;37186;51.394;5.454;2023-04-06T07:12:37;3.17;;;3.07;;
26820;SDS011;37186;51.394;5.454;2023-04-06T07:15:38;3.10;;;3.00;;
26820;SDS011;37186;51.394;5.454;2023-04-06T07:18:38;3.07;;;2.97;;
26820;SDS011;37186;51.394;5.454;2023-04-06T07:21:39;3.00;;;2.90;;
26820;SDS011;37186;51.394;5.454;2023-04-06T07:24:39;3.20;;;3.10;;
26820;SDS011;37186;51.394;5.454;2023-04-06T07:27:40;3.27;;;3.17;;
26820;SDS011;37186;51.394;5.454;2023-04-06T07:30:40;3.00;;;2.90;;
26820;SDS011;37186;51.394;5.454;2023-04-06T07:33:41;3.27;;;3.17;;
26820;SDS011;37186;51.394;5.454;2023-04-06T07:36:41;3.20;;;3.10;;
26820;SDS011;37186;51.394;5.454;2023-04-06T07:39:42;3.07;;;2.97;;
26820;SDS011;37186;51.394;5.454;2023-04-06T07:42:42;3.13;;;3.03;;
26820;SDS011;37186;51.394;5.454;2023-04-06T07:45:43;3.27;;;3.17;;
26820;SDS011;37186;51.394;5.454;2023-04-06T07:48:44;3.30;;;3.20;;
26820;SDS011;37186;51.394;5.454;2023-04-06T07:51:44;3.20;;;3.10;;
26820;SDS011;37186;51.394;5.454;2023-04-06T07:54:45;3.23;;;3.13;;
26820;SDS011;37186;51.394;5.454;2023-04-06T07:57:45;3.40;;;3.30;;
26820;SDS011;37186;51.394;5.454;2023-04-06T08:00:46;3.47;;;3.37;;
26820;SDS011;37186;51.394;5.454;2023-04-06T08:03:46;3.03;;;2.93;;
26820;SDS011;37186;51.394;5.454;2023-04-06T08:06:47;3.23;;;3.13;;
26820;SDS011;37186;51.394;5.454;2023-04-06T08:09:47;3.43;;;3.33;;
26820;SDS011;37186;51.394;5.454;2023-04-06T08:12:48;3.50;;;3.40;;
26820;SDS011;37186;51.394;5.454;2023-04-06T08:15:49;3.67;;;3.57;;
26820;SDS011;37186;51.394;5.454;2023-04-06T08:18:49;3.60;;;3.50;;
26820;SDS011;37186;51.394;5.454;2023-04-06T08:21:50;3.50;;;3.40;;
26820;SDS011;37186;51.394;5.454;2023-04-06T08:24:51;3.83;;;3.73;;
26820;SDS011;37186;51.394;5.454;2023-04-06T08:27:51;3.53;;;3.43;;
26820;SDS011;37186;51.394;5.454;2023-04-06T08:30:52;3.63;;;3.53;;
26820;SDS011;37186;51.394;5.454;2023-04-06T08:33:52;4.00;;;3.90;;
26820;SDS011;37186;51.394;5.454;2023-04-06T08:36:53;3.73;;;3.63;;
26820;SDS011;37186;51.394;5.454;2023-04-06T08:39:53;3.80;;;3.70;;
26820;SDS011;37186;51.394;5.454;2023-04-06T08:42:54;3.87;;;3.77;;
26820;SDS011;37186;51.394;5.454;2023-04-06T08:45:55;3.60;;;3.50;;
26820;SDS011;37186;51.394;5.454;2023-04-06T08:48:57;3.50;;;3.40;;
26820;SDS011;37186;51.394;5.454;2023-04-06T08:51:58;3.33;;;3.23;;
26820;SDS011;37186;51.394;5.454;2023-04-06T08:55:00;3.27;;;3.17;;
26820;SDS011;37186;51.394;5.454;2023-04-06T08:58:01;3.33;;;3.23;;
26820;SDS011;37186;51.394;5.454;2023-04-06T09:01:03;3.40;;;3.30;;
26820;SDS011;37186;51.394;5.454;2023-04-06T09:04:08;3.23;;;3.13;;
26820;SDS011;37186;51.394;5.454;2023-04-06T09:07:10;3.37;;;3.27;;
26820;SDS011;37186;51.394;5.454;2023-04-06T09:10:11;3.23;;;3.13;;
26820;SDS011;37186;51.394;5.454;2023-04-06T09:13:11;3.50;;;3.40;;
26820;SDS011;37186;51.394;5.454;2023-04-06T09:16:12;3.27;;;3.17;;
26820;SDS011;37186;51.394;5.454;2023-04-06T09:19:12;3.40;;;3.30;;
26820;SDS011;37186;51.394;5.454;2023-04-06T09:22:13;3.43;;;3.33;;
26820;SDS011;37186;51.394;5.454;2023-04-06T09:25:21;3.43;;;3.33;;
26820;SDS011;37186;51.394;5.454;2023-04-06T09:28:45;3.40;;;3.30;;
26820;SDS011;37186;51.394;5.454;2023-04-06T09:32:06;3.53;;;3.43;;
26820;SDS011;37186;51.394;5.454;2023-04-06T09:35:07;3.40;;;3.30;;
26820;SDS011;37186;51.394;5.454;2023-04-06T09:38:12;3.50;;;3.40;;
26820;SDS011;37186;51.394;5.454;2023-04-06T09:41:20;3.40;;;3.30;;
26820;SDS011;37186;51.394;5.454;2023-04-06T09:44:30;3.70;;;3.60;;
26820;SDS011;37186;51.394;5.454;2023-04-06T09:47:31;3.30;;;3.20;;
26820;SDS011;37186;51.394;5.454;2023-04-06T09:50:33;3.60;;;3.50;;
26820;SDS011;37186;51.394;5.454;2023-04-06T09:53:34;3.50;;;3.40;;
26820;SDS011;37186;51.394;5.454;2023-04-06T09:56:45;3.20;;;3.10;;
26820;SDS011;37186;51.394;5.454;2023-04-06T10:00:05;3.23;;;3.13;;
26820;SDS011;37186;51.394;5.454;2023-04-06T10:06:21;3.33;;;3.23;;
26820;SDS011;37186;51.394;5.454;2023-04-06T10:09:27;3.73;;;3.63;;
26820;SDS011;37186;51.394;5.454;2023-04-06T10:12:36;3.50;;;3.40;;
26820;SDS011;37186;51.394;5.454;2023-04-06T10:15:38;3.73;;;3.63;;
26820;SDS011;37186;51.394;5.454;2023-04-06T10:18:39;3.70;;;3.60;;
26820;SDS011;37186;51.394;5.454;2023-04-06T10:21:45;3.73;;;3.63;;
26820;SDS011;37186;51.394;5.454;2023-04-06T10:24:50;3.70;;;3.60;;
26820;SDS011;37186;51.394;5.454;2023-04-06T10:27:50;3.53;;;3.43;;
26820;SDS011;37186;51.394;5.454;2023-04-06T10:31:05;3.63;;;3.53;;
26820;SDS011;37186;51.394;5.454;2023-04-06T10:34:06;3.63;;;3.53;;
26820;SDS011;37186;51.394;5.454;2023-04-06T10:37:10;3.53;;;3.43;;
26820;SDS011;37186;51.394;5.454;2023-04-06T10:40:22;3.63;;;3.53;;
26820;SDS011;37186;51.394;5.454;2023-04-06T10:43:25;3.43;;;3.33;;
26820;SDS011;37186;51.394;5.454;2023-04-06T10:46:26;3.63;;;3.53;;
26820;SDS011;37186;51.394;5.454;2023-04-06T10:49:27;3.67;;;3.57;;
26820;SDS011;37186;51.394;5.454;2023-04-06T10:52:28;3.83;;;3.73;;
26820;SDS011;37186;51.394;5.454;2023-04-06T10:55:28;3.67;;;3.57;;
26820;SDS011;37186;51.394;5.454;2023-04-06T10:58:30;3.67;;;3.57;;
26820;SDS011;37186;51.394;5.454;2023-04-06T11:01:31;3.73;;;3.63;;
26820;SDS011;37186;51.394;5.454;2023-04-06T11:04:31;3.97;;;3.87;;
26820;SDS011;37186;51.394;5.454;2023-04-06T11:07:32;4.03;;;3.93;;
26820;SDS011;37186;51.394;5.454;2023-04-06T11:10:32;3.97;;;3.87;;
26820;SDS011;37186;51.394;5.454;2023-04-06T11:13:52;4.27;;;4.17;;
26820;SDS011;37186;51.394;5.454;2023-04-06T11:16:54;4.03;;;3.93;;
26820;SDS011;37186;51.394;5.454;2023-04-06T11:19:55;4.30;;;4.20;;
26820;SDS011;37186;51.394;5.454;2023-04-06T11:22:56;4.07;;;3.97;;
26820;SDS011;37186;51.394;5.454;2023-04-06T11:25:59;4.90;;;4.80;;
26820;SDS011;37186;51.394;5.454;2023-04-06T11:28:59;4.53;;;4.43;;
26820;SDS011;37186;51.394;5.454;2023-04-06T11:32:01;4.43;;;4.33;;
26820;SDS011;37186;51.394;5.454;2023-04-06T11:35:03;4.43;;;4.33;;
26820;SDS011;37186;51.394;5.454;2023-04-06T11:38:04;4.70;;;4.60;;
26820;SDS011;37186;51.394;5.454;2023-04-06T11:41:05;4.90;;;4.80;;
26820;SDS011;37186;51.394;5.454;2023-04-06T11:44:06;4.50;;;4.40;;
26820;SDS011;37186;51.394;5.454;2023-04-06T11:47:07;4.77;;;4.67;;
26820;SDS011;37186;51.394;5.454;2023-04-06T11:50:15;4.67;;;4.57;;
26820;SDS011;37186;51.394;5.454;2023-04-06T11:53:15;4.73;;;4.63;;
26820;SDS011;37186;51.394;5.454;2023-04-06T11:56:23;4.33;;;4.23;;
26820;SDS011;37186;51.394;5.454;2023-04-06T11:59:25;4.37;;;4.27;;
26820;SDS011;37186;51.394;5.454;2023-04-06T12:02:27;4.50;;;4.40;;
26820;SDS011;37186;51.394;5.454;2023-04-06T12:05:27;4.47;;;4.37;;
26820;SDS011;37186;51.394;5.454;2023-04-06T12:08:28;4.37;;;4.27;;
26820;SDS011;37186;51.394;5.454;2023-04-06T12:11:28;4.23;;;4.13;;
26820;SDS011;37186;51.394;5.454;2023-04-06T12:14:29;4.17;;;4.07;;
26820;SDS011;37186;51.394;5.454;2023-04-06T12:17:30;4.70;;;4.60;;
26820;SDS011;37186;51.394;5.454;2023-04-06T12:20:31;4.60;;;4.50;;
26820;SDS011;37186;51.394;5.454;2023-04-06T12:23:31;4.50;;;4.40;;
26820;SDS011;37186;51.394;5.454;2023-04-06T12:26:32;4.43;;;4.33;;
26820;SDS011;37186;51.394;5.454;2023-04-06T12:29:33;4.20;;;4.10;;
26820;SDS011;37186;51.394;5.454;2023-04-06T12:32:33;4.20;;;4.10;;
26820;SDS011;37186;51.394;5.454;2023-04-06T12:35:34;4.43;;;4.33;;
26820;SDS011;37186;51.394;5.454;2023-04-06T12:38:35;4.50;;;4.40;;
26820;SDS011;37186;51.394;5.454;2023-04-06T12:41:37;4.73;;;4.63;;
26820;SDS011;37186;51.394;5.454;2023-04-06T12:44:41;4.87;;;4.77;;
26820;SDS011;37186;51.394;5.454;2023-04-06T12:47:42;4.80;;;4.70;;
26820;SDS011;37186;51.394;5.454;2023-04-06T12:50:43;4.60;;;4.50;;
26820;SDS011;37186;51.394;5.454;2023-04-06T12:53:43;4.80;;;4.70;;
26820;SDS011;37186;51.394;5.454;2023-04-06T12:56:44;4.93;;;4.83;;
26820;SDS011;37186;51.394;5.454;2023-04-06T12:59:44;4.90;;;4.80;;
26820;SDS011;37186;51.394;5.454;2023-04-06T13:02:46;5.57;;;5.47;;
26820;SDS011;37186;51.394;5.454;2023-04-06T13:05:47;5.27;;;5.17;;
26820;SDS011;37186;51.394;5.454;2023-04-06T13:08:48;5.83;;;5.67;;
26820;SDS011;37186;51.394;5.454;2023-04-06T13:11:50;5.97;;;5.77;;
26820;SDS011;37186;51.394;5.454;2023-04-06T13:14:50;6.20;;;6.00;;
26820;SDS011;37186;51.394;5.454;2023-04-06T13:17:52;6.07;;;5.87;;
26820;SDS011;37186;51.394;5.454;2023-04-06T13:20:52;6.50;;;6.30;;
26820;SDS011;37186;51.394;5.454;2023-04-06T13:23:55;6.60;;;6.40;;
26820;SDS011;37186;51.394;5.454;2023-04-06T13:26:55;6.63;;;6.43;;
26820;SDS011;37186;51.394;5.454;2023-04-06T13:29:56;6.60;;;6.40;;
26820;SDS011;37186;51.394;5.454;2023-04-06T13:32:57;6.80;;;6.60;;
26820;SDS011;37186;51.394;5.454;2023-04-06T13:35:58;6.70;;;6.50;;
26820;SDS011;37186;51.394;5.454;2023-04-06T13:38:59;6.67;;;6.47;;
26820;SDS011;37186;51.394;5.454;2023-04-06T13:42:00;6.33;;;6.13;;
26820;SDS011;37186;51.394;5.454;2023-04-06T13:45:01;6.20;;;6.00;;
26820;SDS011;37186;51.394;5.454;2023-04-06T13:48:02;6.30;;;6.10;;
26820;SDS011;37186;51.394;5.454;2023-04-06T13:51:12;6.13;;;5.93;;
26820;SDS011;37186;51.394;5.454;2023-04-06T13:54:13;6.03;;;5.83;;
26820;SDS011;37186;51.394;5.454;2023-04-06T13:57:14;6.13;;;5.93;;
26820;SDS011;37186;51.394;5.454;2023-04-06T14:00:14;6.10;;;5.90;;
26820;SDS011;37186;51.394;5.454;2023-04-06T14:03:15;6.37;;;6.17;;
26820;SDS011;37186;51.394;5.454;2023-04-06T14:06:16;6.63;;;6.43;;
26820;SDS011;37186;51.394;5.454;2023-04-06T14:09:16;6.00;;;5.80;;
26820;SDS011;37186;51.394;5.454;2023-04-06T14:12:17;6.23;;;6.03;;
26820;SDS011;37186;51.394;5.454;2023-04-06T14:15:17;6.03;;;5.83;;
26820;SDS011;37186;51.394;5.454;2023-04-06T14:18:18;6.03;;;5.83;;
26820;SDS011;37186;51.394;5.454;2023-04-06T14:21:19;5.80;;;5.60;;
26820;SDS011;37186;51.394;5.454;2023-04-06T14:24:20;5.90;;;5.70;;
26820;SDS011;37186;51.394;5.454;2023-04-06T14:27:20;6.07;;;5.87;;
26820;SDS011;37186;51.394;5.454;2023-04-06T14:30:22;5.63;;;5.53;;
26820;SDS011;37186;51.394;5.454;2023-04-06T14:33:22;5.13;;;5.03;;
26820;SDS011;37186;51.394;5.454;2023-04-06T14:36:23;5.33;;;5.23;;
26820;SDS011;37186;51.394;5.454;2023-04-06T14:39:26;5.10;;;5.00;;
26820;SDS011;37186;51.394;5.454;2023-04-06T14:42:27;4.90;;;4.80;;
26820;SDS011;37186;51.394;5.454;2023-04-06T14:45:27;5.23;;;5.13;;
26820;SDS011;37186;51.394;5.454;2023-04-06T14:48:28;4.97;;;4.87;;
26820;SDS011;37186;51.394;5.454;2023-04-06T14:51:28;4.53;;;4.43;;
26820;SDS011;37186;51.394;5.454;2023-04-06T14:54:29;4.80;;;4.70;;
26820;SDS011;37186;51.394;5.454;2023-04-06T14:57:30;4.83;;;4.73;;
26820;SDS011;37186;51.394;5.454;2023-04-06T15:00:31;5.07;;;4.97;;
26820;SDS011;37186;51.394;5.454;2023-04-06T15:03:31;4.93;;;4.83;;
26820;SDS011;37186;51.394;5.454;2023-04-06T15:06:32;4.80;;;4.70;;
26820;SDS011;37186;51.394;5.454;2023-04-06T15:09:32;5.20;;;5.10;;
26820;SDS011;37186;51.394;5.454;2023-04-06T15:12:35;5.40;;;5.30;;
26820;SDS011;37186;51.394;5.454;2023-04-06T15:15:35;5.70;;;5.57;;
26820;SDS011;37186;51.394;5.454;2023-04-06T15:18:36;5.50;;;5.40;;
26820;SDS011;37186;51.394;5.454;2023-04-06T15:21:37;5.20;;;5.10;;
26820;SDS011;37186;51.394;5.454;2023-04-06T15:24:37;5.20;;;5.10;;
26820;SDS011;37186;51.394;5.454;2023-04-06T15:27:38;5.60;;;5.50;;
26820;SDS011;37186;51.394;5.454;2023-04-06T15:30:38;5.40;;;5.30;;
26820;SDS011;37186;51.394;5.454;2023-04-06T15:33:39;5.47;;;5.37;;
26820;SDS011;37186;51.394;5.454;2023-04-06T15:36:40;5.07;;;4.97;;
26820;SDS011;37186;51.394;5.454;2023-04-06T15:39:43;5.47;;;5.37;;
26820;SDS011;37186;51.394;5.454;2023-04-06T15:42:43;5.27;;;5.17;;
26820;SDS011;37186;51.394;5.454;2023-04-06T15:45:44;5.30;;;5.20;;
26820;SDS011;37186;51.394;5.454;2023-04-06T15:48:44;5.23;;;5.13;;
26820;SDS011;37186;51.394;5.454;2023-04-06T15:51:46;5.13;;;5.03;;
26820;SDS011;37186;51.394;5.454;2023-04-06T15:54:47;5.00;;;4.90;;
26820;SDS011;37186;51.394;5.454;2023-04-06T15:57:48;5.37;;;5.27;;
26820;SDS011;37186;51.394;5.454;2023-04-06T16:00:49;5.30;;;5.20;;
26820;SDS011;37186;51.394;5.454;2023-04-06T16:03:49;5.27;;;5.17;;
26820;SDS011;37186;51.394;5.454;2023-04-06T16:06:50;5.60;;;5.50;;
26820;SDS011;37186;51.394;5.454;2023-04-06T16:09:51;5.40;;;5.30;;
26820;SDS011;37186;51.394;5.454;2023-04-06T16:12:51;5.80;;;5.60;;
26820;SDS011;37186;51.394;5.454;2023-04-06T16:15:52;5.30;;;5.20;;
26820;SDS011;37186;51.394;5.454;2023-04-06T16:18:52;5.30;;;5.20;;
26820;SDS011;37186;51.394;5.454;2023-04-06T16:21:53;5.33;;;5.23;;
26820;SDS011;37186;51.394;5.454;2023-04-06T16:24:54;5.47;;;5.37;;
26820;SDS011;37186;51.394;5.454;2023-04-06T16:27:55;5.00;;;4.90;;
26820;SDS011;37186;51.394;5.454;2023-04-06T16:30:55;5.00;;;4.90;;
26820;SDS011;37186;51.394;5.454;2023-04-06T16:33:57;5.07;;;4.97;;
26820;SDS011;37186;51.394;5.454;2023-04-06T16:36:58;4.47;;;4.37;;
26820;SDS011;37186;51.394;5.454;2023-04-06T16:39:58;4.60;;;4.50;;
26820;SDS011;37186;51.394;5.454;2023-04-06T16:42:59;4.20;;;4.10;;
26820;SDS011;37186;51.394;5.454;2023-04-06T16:46:00;4.20;;;4.10;;
26820;SDS011;37186;51.394;5.454;2023-04-06T16:49:01;4.23;;;4.13;;
26820;SDS011;37186;51.394;5.454;2023-04-06T16:52:03;4.20;;;4.10;;
26820;SDS011;37186;51.394;5.454;2023-04-06T16:55:05;3.80;;;3.70;;
26820;SDS011;37186;51.394;5.454;2023-04-06T16:58:06;3.80;;;3.70;;
26820;SDS011;37186;51.394;5.454;2023-04-06T17:01:06;3.73;;;3.63;;
26820;SDS011;37186;51.394;5.454;2023-04-06T17:04:07;3.97;;;3.87;;
26820;SDS011;37186;51.394;5.454;2023-04-06T17:07:07;4.13;;;4.03;;
26820;SDS011;37186;51.394;5.454;2023-04-06T17:10:09;3.77;;;3.67;;
26820;SDS011;37186;51.394;5.454;2023-04-06T17:13:10;3.90;;;3.80;;
26820;SDS011;37186;51.394;5.454;2023-04-06T17:16:10;4.10;;;4.00;;
26820;SDS011;37186;51.394;5.454;2023-04-06T17:19:11;4.00;;;3.90;;
26820;SDS011;37186;51.394;5.454;2023-04-06T17:22:12;4.20;;;4.10;;
26820;SDS011;37186;51.394;5.454;2023-04-06T17:25:12;4.17;;;4.07;;
26820;SDS011;37186;51.394;5.454;2023-04-06T17:28:13;4.30;;;4.20;;
26820;SDS011;37186;51.394;5.454;2023-04-06T17:31:14;4.40;;;4.30;;
26820;SDS011;37186;51.394;5.454;2023-04-06T17:34:15;4.10;;;4.00;;
26820;SDS011;37186;51.394;5.454;2023-04-06T17:37:15;4.50;;;4.40;;
26820;SDS011;37186;51.394;5.454;2023-04-06T17:40:16;4.13;;;4.03;;
26820;SDS011;37186;51.394;5.454;2023-04-06T17:43:16;4.20;;;4.10;;
26820;SDS011;37186;51.394;5.454;2023-04-06T17:46:17;4.10;;;4.00;;
26820;SDS011;37186;51.394;5.454;2023-04-06T17:49:19;4.20;;;4.10;;
26820;SDS011;37186;51.394;5.454;2023-04-06T17:52:20;4.20;;;4.10;;
26820;SDS011;37186;51.394;5.454;2023-04-06T17:55:20;4.00;;;3.90;;
26820;SDS011;37186;51.394;5.454;2023-04-06T17:58:21;4.27;;;4.17;;
26820;SDS011;37186;51.394;5.454;2023-04-06T18:01:21;4.37;;;4.27;;
26820;SDS011;37186;51.394;5.454;2023-04-06T18:04:22;4.00;;;3.90;;
26820;SDS011;37186;51.394;5.454;2023-04-06T18:07:23;4.20;;;4.10;;
26820;SDS011;37186;51.394;5.454;2023-04-06T18:10:23;4.30;;;4.20;;
26820;SDS011;37186;51.394;5.454;2023-04-06T18:13:24;4.10;;;4.00;;
26820;SDS011;37186;51.394;5.454;2023-04-06T18:16:24;4.37;;;4.27;;